sensor_id;sensor_type;location;lat;lon;timestamp;pressure;altitude;pressure_sealevel;temperature;humidity
12221;BME280;6173;42.024;23.096;2022-08-02T00:00:52;96536.53;;;18.36;85.83
12221;BME280;6173;42.024;23.096;2022-08-02T00:03:19;96542.53;;;18.45;85.61
12221;BME280;6173;42.024;23.096;2022-08-02T00:05:45;96535.66;;;18.31;85.16
12221;BME280;6173;42.024;23.096;2022-08-02T00:08:14;96542.69;;;18.24;86.96
12221;BME280;6173;42.024;23.096;2022-08-02T00:10:40;96541.69;;;18.28;87.48
12221;BME280;6173;42.024;23.096;2022-08-02T00:13:07;96544.59;;;18.36;86.75
12221;BME280;6173;42.024;23.096;2022-08-02T00:15:34;96541.69;;;18.28;86.16
12221;BME280;6173;42.024;23.096;2022-08-02T00:18:01;96543.03;;;18.22;88.12
12221;BME280;6173;42.024;23.096;2022-08-02T00:20:27;96542.91;;;18.31;86.76
12221;BME280;6173;42.024;23.096;2022-08-02T00:22:54;96544.38;;;18.28;86.76
12221;BME280;6173;42.024;23.096;2022-08-02T00:25:22;96541.69;;;18.28;88.08
12221;BME280;6173;42.024;23.096;2022-08-02T00:27:49;96547.34;;;18.39;86.57
12221;BME280;6173;42.024;23.096;2022-08-02T00:30:16;96548.47;;;18.38;86.41
12221;BME280;6173;42.024;23.096;2022-08-02T00:32:43;96543.81;;;18.23;85.74
12221;BME280;6173;42.024;23.096;2022-08-02T00:35:09;96532.97;;;18.31;86.14
12221;BME280;6173;42.024;23.096;2022-08-02T00:37:39;96555.84;;;18.41;85.38
12221;BME280;6173;42.024;23.096;2022-08-02T00:40:07;96550.94;;;18.43;86.15
12221;BME280;6173;42.024;23.096;2022-08-02T00:42:37;96542.78;;;18.40;84.87
12221;BME280;6173;42.024;23.096;2022-08-02T00:45:04;96544.72;;;18.27;86.90
12221;BME280;6173;42.024;23.096;2022-08-02T00:47:31;96545.84;;;18.14;87.82
12221;BME280;6173;42.024;23.096;2022-08-02T00:49:58;96552.44;;;18.04;89.76
12221;BME280;6173;42.024;23.096;2022-08-02T00:52:25;96559.25;;;18.01;89.80
12221;BME280;6173;42.024;23.096;2022-08-02T00:54:52;96547.84;;;18.04;90.06
12221;BME280;6173;42.024;23.096;2022-08-02T00:57:18;96555.34;;;17.99;89.33
12221;BME280;6173;42.024;23.096;2022-08-02T00:59:46;96541.94;;;17.74;91.39
12221;BME280;6173;42.024;23.096;2022-08-02T01:02:13;96549.44;;;17.81;90.82
12221;BME280;6173;42.024;23.096;2022-08-02T01:04:40;96526.63;;;17.63;91.53
12221;BME280;6173;42.024;23.096;2022-08-02T01:07:07;96551.66;;;17.91;89.90
12221;BME280;6173;42.024;23.096;2022-08-02T01:09:33;96549.19;;;17.98;89.30
12221;BME280;6173;42.024;23.096;2022-08-02T01:12:00;96553.56;;;18.03;88.99
12221;BME280;6173;42.024;23.096;2022-08-02T01:14:27;96551.53;;;18.00;89.19
12221;BME280;6173;42.024;23.096;2022-08-02T01:17:00;96556.25;;;17.91;90.42
12221;BME280;6173;42.024;23.096;2022-08-02T01:19:36;96548.75;;;17.96;89.45
12221;BME280;6173;42.024;23.096;2022-08-02T01:22:22;96557.69;;;18.00;87.58
12221;BME280;6173;42.024;23.096;2022-08-02T01:25:06;96552.22;;;17.97;88.26
12221;BME280;6173;42.024;23.096;2022-08-02T01:27:45;96548.75;;;17.84;88.79
12221;BME280;6173;42.024;23.096;2022-08-02T01:30:18;96540.69;;;17.72;89.33
12221;BME280;6173;42.024;23.096;2022-08-02T01:32:57;96551.88;;;17.74;91.43
12221;BME280;6173;42.024;23.096;2022-08-02T01:35:29;96546.03;;;17.72;91.82
12221;BME280;6173;42.024;23.096;2022-08-02T01:38:02;96526.41;;;17.68;90.56
12221;BME280;6173;42.024;23.096;2022-08-02T01:40:33;96541.47;;;17.72;90.69
12221;BME280;6173;42.024;23.096;2022-08-02T01:43:02;96540.56;;;17.68;91.08
12221;BME280;6173;42.024;23.096;2022-08-02T01:45:32;96541.00;;;17.58;92.74
12221;BME280;6173;42.024;23.096;2022-08-02T01:48:02;96538.19;;;17.42;93.51
12221;BME280;6173;42.024;23.096;2022-08-02T01:50:31;96529.91;;;17.35;95.49
12221;BME280;6173;42.024;23.096;2022-08-02T01:53:02;96540.09;;;17.42;97.13
12221;BME280;6173;42.024;23.096;2022-08-02T01:55:34;96535.06;;;17.40;96.45
12221;BME280;6173;42.024;23.096;2022-08-02T01:58:06;96534.97;;;17.37;97.72
12221;BME280;6173;42.024;23.096;2022-08-02T02:00:38;96530.38;;;17.37;96.97
12221;BME280;6173;42.024;23.096;2022-08-02T02:03:08;96537.63;;;17.37;96.08
12221;BME280;6173;42.024;23.096;2022-08-02T02:05:36;96529.69;;;17.28;97.03
12221;BME280;6173;42.024;23.096;2022-08-02T02:08:05;96533.00;;;17.25;99.26
12221;BME280;6173;42.024;23.096;2022-08-02T02:10:33;96536.94;;;17.27;99.74
12221;BME280;6173;42.024;23.096;2022-08-02T02:13:05;96529.75;;;17.07;100.00
12221;BME280;6173;42.024;23.096;2022-08-02T02:15:34;96537.91;;;17.11;100.00
12221;BME280;6173;42.024;23.096;2022-08-02T02:18:06;96530.88;;;17.06;100.00
12221;BME280;6173;42.024;23.096;2022-08-02T02:20:34;96540.25;;;17.12;100.00
12221;BME280;6173;42.024;23.096;2022-08-02T02:23:01;96526.38;;;16.98;100.00
12221;BME280;6173;42.024;23.096;2022-08-02T02:25:28;96539.00;;;17.10;100.00
12221;BME280;6173;42.024;23.096;2022-08-02T02:28:00;96540.47;;;17.19;99.67
12221;BME280;6173;42.024;23.096;2022-08-02T02:30:29;96541.38;;;17.23;100.00
12221;BME280;6173;42.024;23.096;2022-08-02T02:33:00;96539.97;;;17.26;99.65
12221;BME280;6173;42.024;23.096;2022-08-02T02:35:29;96537.28;;;17.26;99.78
12221;BME280;6173;42.024;23.096;2022-08-02T02:38:00;96531.47;;;17.24;97.76
12221;BME280;6173;42.024;23.096;2022-08-02T02:40:28;96542.16;;;17.12;100.00
12221;BME280;6173;42.024;23.096;2022-08-02T02:42:57;96541.69;;;17.10;100.00
12221;BME280;6173;42.024;23.096;2022-08-02T02:45:26;96541.38;;;16.90;100.00
12221;BME280;6173;42.024;23.096;2022-08-02T02:47:54;96539.25;;;16.84;100.00
12221;BME280;6173;42.024;23.096;2022-08-02T02:50:23;96534.75;;;16.75;100.00
12221;BME280;6173;42.024;23.096;2022-08-02T02:52:51;96526.84;;;16.79;100.00
12221;BME280;6173;42.024;23.096;2022-08-02T02:55:18;96540.16;;;16.88;100.00
12221;BME280;6173;42.024;23.096;2022-08-02T02:57:47;96535.94;;;16.87;100.00
12221;BME280;6173;42.024;23.096;2022-08-02T03:00:14;96546.25;;;16.76;100.00
12221;BME280;6173;42.024;23.096;2022-08-02T03:02:43;96539.66;;;16.73;100.00
12221;BME280;6173;42.024;23.096;2022-08-02T03:05:11;96534.09;;;16.58;100.00
12221;BME280;6173;42.024;23.096;2022-08-02T03:07:39;96552.34;;;16.55;100.00
12221;BME280;6173;42.024;23.096;2022-08-02T03:10:08;96553.00;;;16.52;100.00
12221;BME280;6173;42.024;23.096;2022-08-02T03:12:35;96551.91;;;16.53;100.00
12221;BME280;6173;42.024;23.096;2022-08-02T03:15:04;96555.53;;;16.49;100.00
12221;BME280;6173;42.024;23.096;2022-08-02T03:17:39;96556.66;;;16.48;100.00
12221;BME280;6173;42.024;23.096;2022-08-02T03:20:09;96554.75;;;16.48;100.00
12221;BME280;6173;42.024;23.096;2022-08-02T03:22:36;96549.28;;;16.45;100.00
12221;BME280;6173;42.024;23.096;2022-08-02T03:25:07;96554.75;;;16.48;100.00
12221;BME280;6173;42.024;23.096;2022-08-02T03:27:34;96550.97;;;16.49;100.00
12221;BME280;6173;42.024;23.096;2022-08-02T03:30:01;96555.53;;;16.49;100.00
12221;BME280;6173;42.024;23.096;2022-08-02T03:32:28;96556.91;;;16.55;100.00
12221;BME280;6173;42.024;23.096;2022-08-02T03:34:57;96542.41;;;16.35;100.00
12221;BME280;6173;42.024;23.096;2022-08-02T03:37:25;96544.47;;;16.38;100.00
12221;BME280;6173;42.024;23.096;2022-08-02T03:39:52;96561.81;;;16.53;100.00
12221;BME280;6173;42.024;23.096;2022-08-02T03:42:21;96565.97;;;16.63;100.00
12221;BME280;6173;42.024;23.096;2022-08-02T03:44:49;96564.22;;;16.67;100.00
12221;BME280;6173;42.024;23.096;2022-08-02T03:47:17;96550.66;;;16.51;100.00
12221;BME280;6173;42.024;23.096;2022-08-02T03:49:45;96564.69;;;16.69;100.00
12221;BME280;6173;42.024;23.096;2022-08-02T03:52:13;96567.19;;;16.74;100.00
12221;BME280;6173;42.024;23.096;2022-08-02T03:54:41;96578.22;;;16.72;100.00
12221;BME280;6173;42.024;23.096;2022-08-02T03:57:09;96550.19;;;16.49;100.00
12221;BME280;6173;42.024;23.096;2022-08-02T03:59:40;96573.34;;;16.66;100.00
12221;BME280;6173;42.024;23.096;2022-08-02T04:02:07;96561.56;;;16.67;100.00
12221;BME280;6173;42.024;23.096;2022-08-02T04:04:34;96579.59;;;16.70;100.00
12221;BME280;6173;42.024;23.096;2022-08-02T04:07:01;96578.38;;;16.67;100.00
12221;BME280;6173;42.024;23.096;2022-08-02T04:09:31;96575.22;;;16.65;100.00
12221;BME280;6173;42.024;23.096;2022-08-02T04:11:58;96571.00;;;16.64;100.00
12221;BME280;6173;42.024;23.096;2022-08-02T04:14:25;96578.66;;;16.74;100.00
12221;BME280;6173;42.024;23.096;2022-08-02T04:17:01;96579.72;;;16.82;100.00
12221;BME280;6173;42.024;23.096;2022-08-02T04:19:37;96579.94;;;16.89;100.00
12221;BME280;6173;42.024;23.096;2022-08-02T04:22:10;96576.06;;;16.87;100.00
12221;BME280;6173;42.024;23.096;2022-08-02T04:24:43;96575.66;;;16.97;100.00
12221;BME280;6173;42.024;23.096;2022-08-02T04:27:12;96567.34;;;16.90;100.00
12221;BME280;6173;42.024;23.096;2022-08-02T04:29:40;96584.25;;;17.02;100.00
12221;BME280;6173;42.024;23.096;2022-08-02T04:32:09;96587.22;;;17.22;100.00
12221;BME280;6173;42.024;23.096;2022-08-02T04:34:36;96587.34;;;17.25;100.00
12221;BME280;6173;42.024;23.096;2022-08-02T04:37:02;96580.72;;;17.11;100.00
12221;BME280;6173;42.024;23.096;2022-08-02T04:39:29;96586.19;;;17.14;100.00
12221;BME280;6173;42.024;23.096;2022-08-02T04:41:56;96580.84;;;17.14;100.00
12221;BME280;6173;42.024;23.096;2022-08-02T04:44:24;96588.78;;;17.23;100.00
12221;BME280;6173;42.024;23.096;2022-08-02T04:46:51;96592.16;;;17.32;98.59
12221;BME280;6173;42.024;23.096;2022-08-02T04:49:20;96585.16;;;17.40;98.78
12221;BME280;6173;42.024;23.096;2022-08-02T04:51:49;96581.25;;;17.49;97.83
12221;BME280;6173;42.024;23.096;2022-08-02T04:54:15;96576.59;;;17.46;97.60
12221;BME280;6173;42.024;23.096;2022-08-02T04:56:42;96576.50;;;17.67;94.61
12221;BME280;6173;42.024;23.096;2022-08-02T04:59:09;96533.06;;;17.49;95.23
12221;BME280;6173;42.024;23.096;2022-08-02T05:01:37;96586.25;;;17.84;93.30
12221;BME280;6173;42.024;23.096;2022-08-02T05:04:06;96579.69;;;17.81;93.00
12221;BME280;6173;42.024;23.096;2022-08-02T05:06:34;96584.13;;;17.90;92.58
12221;BME280;6173;42.024;23.096;2022-08-02T05:09:01;96588.50;;;17.94;92.39
12221;BME280;6173;42.024;23.096;2022-08-02T05:11:28;96599.56;;;17.93;91.89
12221;BME280;6173;42.024;23.096;2022-08-02T05:13:55;96600.47;;;17.97;90.58
12221;BME280;6173;42.024;23.096;2022-08-02T05:16:21;96600.34;;;17.93;91.75
12221;BME280;6173;42.024;23.096;2022-08-02T05:18:50;96594.31;;;17.96;90.62
12221;BME280;6173;42.024;23.096;2022-08-02T05:21:17;96594.53;;;18.03;90.04
12221;BME280;6173;42.024;23.096;2022-08-02T05:23:45;96593.28;;;17.89;94.88
12221;BME280;6173;42.024;23.096;2022-08-02T05:26:12;96579.25;;;17.92;94.94
12221;BME280;6173;42.024;23.096;2022-08-02T05:28:38;96586.72;;;17.98;93.49
12221;BME280;6173;42.024;23.096;2022-08-02T05:31:05;96604.28;;;18.20;92.78
12221;BME280;6173;42.024;23.096;2022-08-02T05:33:32;96599.31;;;18.34;89.63
12221;BME280;6173;42.024;23.096;2022-08-02T05:35:59;96602.44;;;18.24;91.60
12221;BME280;6173;42.024;23.096;2022-08-02T05:38:25;96607.25;;;18.19;94.52
12221;BME280;6173;42.024;23.096;2022-08-02T05:40:56;96602.56;;;18.28;91.41
12221;BME280;6173;42.024;23.096;2022-08-02T05:43:23;96618.44;;;18.33;90.49
12221;BME280;6173;42.024;23.096;2022-08-02T05:45:50;96616.06;;;18.44;89.37
12221;BME280;6173;42.024;23.096;2022-08-02T05:48:18;96621.66;;;18.51;88.04
12221;BME280;6173;42.024;23.096;2022-08-02T05:50:48;96615.28;;;18.55;87.12
12221;BME280;6173;42.024;23.096;2022-08-02T05:53:21;96614.59;;;18.58;87.36
12221;BME280;6173;42.024;23.096;2022-08-02T05:56:02;96613.75;;;18.42;88.46
12221;BME280;6173;42.024;23.096;2022-08-02T05:58:36;96611.06;;;18.42;87.87
12221;BME280;6173;42.024;23.096;2022-08-02T06:01:07;96608.25;;;18.39;86.10
12221;BME280;6173;42.024;23.096;2022-08-02T06:03:43;96609.25;;;18.58;85.02
12221;BME280;6173;42.024;23.096;2022-08-02T06:06:19;96607.56;;;18.66;85.85
12221;BME280;6173;42.024;23.096;2022-08-02T06:08:50;96610.81;;;18.72;82.83
12221;BME280;6173;42.024;23.096;2022-08-02T06:11:21;96611.81;;;18.67;84.33
12221;BME280;6173;42.024;23.096;2022-08-02T06:13:49;96608.97;;;18.88;85.57
12221;BME280;6173;42.024;23.096;2022-08-02T06:16:18;96604.59;;;18.96;82.97
12221;BME280;6173;42.024;23.096;2022-08-02T06:18:45;96615.56;;;19.19;83.21
12221;BME280;6173;42.024;23.096;2022-08-02T06:21:12;96615.09;;;19.29;79.21
12221;BME280;6173;42.024;23.096;2022-08-02T06:23:41;96601.41;;;19.34;77.86
12221;BME280;6173;42.024;23.096;2022-08-02T06:26:10;96612.28;;;19.53;77.06
12221;BME280;6173;42.024;23.096;2022-08-02T06:28:40;96600.50;;;19.58;78.38
12221;BME280;6173;42.024;23.096;2022-08-02T06:31:07;96606.38;;;19.76;77.63
12221;BME280;6173;42.024;23.096;2022-08-02T06:33:34;96603.78;;;19.79;76.34
12221;BME280;6173;42.024;23.096;2022-08-02T06:36:03;96595.09;;;19.86;76.53
12221;BME280;6173;42.024;23.096;2022-08-02T06:38:40;96594.66;;;19.84;74.67
12221;BME280;6173;42.024;23.096;2022-08-02T06:41:09;96603.94;;;20.02;75.43
12221;BME280;6173;42.024;23.096;2022-08-02T06:43:46;96480.91;;;19.32;74.42
12221;BME280;6173;42.024;23.096;2022-08-02T06:46:16;96596.81;;;20.26;73.59
12221;BME280;6173;42.024;23.096;2022-08-02T06:48:42;96579.13;;;20.25;73.19
12221;BME280;6173;42.024;23.096;2022-08-02T06:51:09;96593.47;;;20.48;71.30
12221;BME280;6173;42.024;23.096;2022-08-02T06:53:36;96592.38;;;20.49;71.20
12221;BME280;6173;42.024;23.096;2022-08-02T06:56:03;96587.06;;;20.53;70.21
12221;BME280;6173;42.024;23.096;2022-08-02T06:58:30;96578.56;;;20.51;71.21
12221;BME280;6173;42.024;23.096;2022-08-02T07:00:58;96581.47;;;20.61;70.65
12221;BME280;6173;42.024;23.096;2022-08-02T07:03:25;96579.09;;;20.76;70.34
12221;BME280;6173;42.024;23.096;2022-08-02T07:05:52;96585.59;;;20.75;69.18
12221;BME280;6173;42.024;23.096;2022-08-02T07:08:19;96584.56;;;20.79;68.94
12221;BME280;6173;42.024;23.096;2022-08-02T07:10:47;96583.06;;;20.82;69.08
12221;BME280;6173;42.024;23.096;2022-08-02T07:13:14;96580.00;;;20.83;68.70
12221;BME280;6173;42.024;23.096;2022-08-02T07:15:41;96580.94;;;20.91;68.58
12221;BME280;6173;42.024;23.096;2022-08-02T07:18:09;96580.66;;;20.96;67.91
12221;BME280;6173;42.024;23.096;2022-08-02T07:20:39;96576.19;;;21.04;66.42
12221;BME280;6173;42.024;23.096;2022-08-02T07:23:06;96586.03;;;21.15;66.97
12221;BME280;6173;42.024;23.096;2022-08-02T07:25:33;96575.03;;;21.24;65.42
12221;BME280;6173;42.024;23.096;2022-08-02T07:28:00;96572.41;;;21.28;65.05
12221;BME280;6173;42.024;23.096;2022-08-02T07:30:26;96566.97;;;21.44;64.55
12221;BME280;6173;42.024;23.096;2022-08-02T07:32:54;96550.84;;;21.28;63.91
12221;BME280;6173;42.024;23.096;2022-08-02T07:35:22;96550.34;;;21.41;64.19
12221;BME280;6173;42.024;23.096;2022-08-02T07:37:49;96560.41;;;21.67;63.12
12221;BME280;6173;42.024;23.096;2022-08-02T07:40:16;96555.53;;;21.73;63.66
12221;BME280;6173;42.024;23.096;2022-08-02T07:42:43;96529.16;;;21.63;61.46
12221;BME280;6173;42.024;23.096;2022-08-02T07:45:10;96552.72;;;21.92;62.48
12221;BME280;6173;42.024;23.096;2022-08-02T07:47:38;96551.19;;;22.14;61.05
12221;BME280;6173;42.024;23.096;2022-08-02T07:50:06;96539.63;;;22.14;60.45
12221;BME280;6173;42.024;23.096;2022-08-02T07:52:35;96544.84;;;22.30;60.81
12221;BME280;6173;42.024;23.096;2022-08-02T07:55:02;96541.91;;;22.42;60.01
12221;BME280;6173;42.024;23.096;2022-08-02T07:57:29;96547.75;;;22.44;58.55
12221;BME280;6173;42.024;23.096;2022-08-02T07:59:56;96527.91;;;22.59;58.57
12221;BME280;6173;42.024;23.096;2022-08-02T08:02:23;96525.97;;;22.60;57.45
12221;BME280;6173;42.024;23.096;2022-08-02T08:04:50;96533.97;;;22.83;56.48
12221;BME280;6173;42.024;23.096;2022-08-02T08:07:16;96529.81;;;22.89;57.62
12221;BME280;6173;42.024;23.096;2022-08-02T08:09:46;96522.56;;;22.96;57.10
12221;BME280;6173;42.024;23.096;2022-08-02T08:12:15;96524.06;;;23.28;55.95
12221;BME280;6173;42.024;23.096;2022-08-02T08:14:42;96515.66;;;23.40;53.54
12221;BME280;6173;42.024;23.096;2022-08-02T08:17:10;96497.66;;;23.55;52.28
12221;BME280;6173;42.024;23.096;2022-08-02T08:19:36;96516.03;;;23.79;51.03
12221;BME280;6173;42.024;23.096;2022-08-02T08:22:03;96516.88;;;23.90;51.25
12221;BME280;6173;42.024;23.096;2022-08-02T08:24:30;96484.41;;;23.90;50.14
12221;BME280;6173;42.024;23.096;2022-08-02T08:26:58;96491.13;;;24.11;48.63
12221;BME280;6173;42.024;23.096;2022-08-02T08:29:25;96515.19;;;24.30;47.97
12221;BME280;6173;42.024;23.096;2022-08-02T08:31:51;96505.22;;;24.41;46.42
12221;BME280;6173;42.024;23.096;2022-08-02T08:34:18;96506.44;;;24.51;46.79
12221;BME280;6173;42.024;23.096;2022-08-02T08:36:45;96501.88;;;24.62;45.54
12221;BME280;6173;42.024;23.096;2022-08-02T08:39:12;96491.03;;;24.62;46.64
12221;BME280;6173;42.024;23.096;2022-08-02T08:41:41;96506.59;;;24.87;45.92
12221;BME280;6173;42.024;23.096;2022-08-02T08:44:09;96504.72;;;25.01;45.09
12221;BME280;6173;42.024;23.096;2022-08-02T08:46:37;96500.50;;;25.08;44.82
12221;BME280;6173;42.024;23.096;2022-08-02T08:49:09;96515.97;;;25.14;44.54
12221;BME280;6173;42.024;23.096;2022-08-02T08:51:41;96495.78;;;25.01;43.15
12221;BME280;6173;42.024;23.096;2022-08-02T08:54:15;96505.91;;;25.15;43.32
12221;BME280;6173;42.024;23.096;2022-08-02T08:56:43;96495.47;;;25.17;43.44
12221;BME280;6173;42.024;23.096;2022-08-02T08:59:12;96500.13;;;25.23;43.92
12221;BME280;6173;42.024;23.096;2022-08-02T09:01:38;96505.56;;;25.34;43.13
12221;BME280;6173;42.024;23.096;2022-08-02T09:04:05;96506.75;;;25.37;43.29
12221;BME280;6173;42.024;23.096;2022-08-02T09:06:32;96495.09;;;25.40;43.27
12221;BME280;6173;42.024;23.096;2022-08-02T09:08:59;96507.13;;;25.46;43.20
12221;BME280;6173;42.024;23.096;2022-08-02T09:11:26;96502.09;;;25.48;43.29
12221;BME280;6173;42.024;23.096;2022-08-02T09:13:54;96487.38;;;25.67;42.61
12221;BME280;6173;42.024;23.096;2022-08-02T09:16:31;96488.56;;;25.76;42.28
12221;BME280;6173;42.024;23.096;2022-08-02T09:18:59;96493.59;;;25.78;42.47
12221;BME280;6173;42.024;23.096;2022-08-02T09:21:34;96488.53;;;25.80;42.17
12221;BME280;6173;42.024;23.096;2022-08-02T09:24:01;96488.94;;;25.89;42.22
12221;BME280;6173;42.024;23.096;2022-08-02T09:26:29;96484.25;;;26.11;41.26
12221;BME280;6173;42.024;23.096;2022-08-02T09:29:00;96490.06;;;26.13;40.25
12221;BME280;6173;42.024;23.096;2022-08-02T09:31:28;96488.13;;;26.14;41.24
12221;BME280;6173;42.024;23.096;2022-08-02T09:33:59;96485.78;;;26.19;41.73
12221;BME280;6173;42.024;23.096;2022-08-02T09:36:35;96490.03;;;26.31;41.45
12221;BME280;6173;42.024;23.096;2022-08-02T09:39:04;96478.72;;;26.54;41.13
12221;BME280;6173;42.024;23.096;2022-08-02T09:41:33;96479.88;;;26.49;40.90
12221;BME280;6173;42.024;23.096;2022-08-02T09:44:02;96471.78;;;26.46;39.22
12221;BME280;6173;42.024;23.096;2022-08-02T09:46:32;96490.69;;;26.67;38.70
12221;BME280;6173;42.024;23.096;2022-08-02T09:49:03;96482.53;;;26.67;39.80
12221;BME280;6173;42.024;23.096;2022-08-02T09:51:32;96476.22;;;26.88;39.03
12221;BME280;6173;42.024;23.096;2022-08-02T09:54:02;96476.59;;;26.94;38.96
12221;BME280;6173;42.024;23.096;2022-08-02T09:56:40;96469.19;;;26.98;39.46
12221;BME280;6173;42.024;23.096;2022-08-02T09:59:08;96444.31;;;27.03;39.34
12221;BME280;6173;42.024;23.096;2022-08-02T10:01:36;96474.38;;;27.41;38.74
12221;BME280;6173;42.024;23.096;2022-08-02T10:04:05;96457.75;;;27.28;38.37
12221;BME280;6173;42.024;23.096;2022-08-02T10:06:32;96446.69;;;27.53;38.09
12221;BME280;6173;42.024;23.096;2022-08-02T10:08:59;96469.31;;;27.43;38.42
12221;BME280;6173;42.024;23.096;2022-08-02T10:11:27;96471.84;;;27.64;38.42
12221;BME280;6173;42.024;23.096;2022-08-02T10:13:54;96449.63;;;27.76;38.45
12221;BME280;6173;42.024;23.096;2022-08-02T10:16:22;96454.66;;;27.78;38.15
12221;BME280;6173;42.024;23.096;2022-08-02T10:18:52;96445.78;;;27.67;38.02
12221;BME280;6173;42.024;23.096;2022-08-02T10:21:22;96442.25;;;27.70;38.56
12221;BME280;6173;42.024;23.096;2022-08-02T10:24:05;96445.59;;;27.92;37.46
12221;BME280;6173;42.024;23.096;2022-08-02T10:26:50;96440.47;;;27.97;36.69
12221;BME280;6173;42.024;23.096;2022-08-02T10:29:19;96440.06;;;27.99;36.53
12221;BME280;6173;42.024;23.096;2022-08-02T10:31:49;96434.91;;;28.08;36.99
12221;BME280;6173;42.024;23.096;2022-08-02T10:34:22;96433.19;;;28.25;36.89
12221;BME280;6173;42.024;23.096;2022-08-02T10:36:51;96426.25;;;28.17;36.19
12221;BME280;6173;42.024;23.096;2022-08-02T10:39:18;96433.38;;;28.07;36.53
12221;BME280;6173;42.024;23.096;2022-08-02T10:41:47;96427.88;;;28.11;36.49
12221;BME280;6173;42.024;23.096;2022-08-02T10:44:25;96416.88;;;28.21;36.06
12221;BME280;6173;42.024;23.096;2022-08-02T10:46:52;96414.28;;;28.45;35.59
12221;BME280;6173;42.024;23.096;2022-08-02T10:49:47;96412.47;;;28.35;36.12
12221;BME280;6173;42.024;23.096;2022-08-02T10:52:14;96422.34;;;28.52;35.75
12221;BME280;6173;42.024;23.096;2022-08-02T10:54:42;96394.38;;;28.48;34.88
12221;BME280;6173;42.024;23.096;2022-08-02T10:57:15;96416.44;;;28.57;34.85
12221;BME280;6173;42.024;23.096;2022-08-02T10:59:42;96406.22;;;28.34;35.46
12221;BME280;6173;42.024;23.096;2022-08-02T11:02:09;96418.81;;;28.21;35.72
12221;BME280;6173;42.024;23.096;2022-08-02T11:05:07;96409.59;;;28.45;36.45
12221;BME280;6173;42.024;23.096;2022-08-02T11:07:36;96386.19;;;28.48;35.47
12221;BME280;6173;42.024;23.096;2022-08-02T11:10:32;96399.31;;;28.56;35.64
12221;BME280;6173;42.024;23.096;2022-08-02T11:13:13;96391.41;;;28.66;35.43
12221;BME280;6173;42.024;23.096;2022-08-02T11:15:52;96383.81;;;28.80;36.04
12221;BME280;6173;42.024;23.096;2022-08-02T11:18:21;96385.44;;;29.05;35.30
12221;BME280;6173;42.024;23.096;2022-08-02T11:23:46;96403.78;;;29.01;35.53
12221;BME280;6173;42.024;23.096;2022-08-02T11:26:43;96395.31;;;28.95;35.34
12221;BME280;6173;42.024;23.096;2022-08-02T11:29:11;96389.19;;;29.15;35.76
12221;BME280;6173;42.024;23.096;2022-08-02T11:31:39;96394.75;;;29.31;34.78
12221;BME280;6173;42.024;23.096;2022-08-02T11:34:06;96383.41;;;29.32;35.31
12221;BME280;6173;42.024;23.096;2022-08-02T11:36:45;96384.84;;;29.41;35.28
12221;BME280;6173;42.024;23.096;2022-08-02T11:39:15;96364.06;;;29.23;34.76
12221;BME280;6173;42.024;23.096;2022-08-02T11:41:47;96392.81;;;29.55;34.58
12221;BME280;6173;42.024;23.096;2022-08-02T11:44:16;96386.97;;;29.53;34.43
12221;BME280;6173;42.024;23.096;2022-08-02T11:46:43;96392.69;;;29.62;34.19
12221;BME280;6173;42.024;23.096;2022-08-02T11:49:11;96390.81;;;29.59;33.99
12221;BME280;6173;42.024;23.096;2022-08-02T11:51:38;96382.47;;;29.43;34.06
12221;BME280;6173;42.024;23.096;2022-08-02T11:54:05;96376.19;;;29.69;34.21
12221;BME280;6173;42.024;23.096;2022-08-02T11:56:33;96378.06;;;29.72;33.54
12221;BME280;6173;42.024;23.096;2022-08-02T11:59:02;96359.81;;;29.89;33.68
12221;BME280;6173;42.024;23.096;2022-08-02T12:01:30;96376.34;;;30.02;33.23
12221;BME280;6173;42.024;23.096;2022-08-02T12:03:57;96384.06;;;30.27;32.83
12221;BME280;6173;42.024;23.096;2022-08-02T12:06:25;96383.31;;;30.26;32.76
12221;BME280;6173;42.024;23.096;2022-08-02T12:08:58;96366.13;;;30.26;32.56
12221;BME280;6173;42.024;23.096;2022-08-02T12:11:25;96363.38;;;30.46;32.25
12221;BME280;6173;42.024;23.096;2022-08-02T12:13:53;96376.97;;;32.25;30.56
12221;BME280;6173;42.024;23.096;2022-08-02T12:16:22;96377.81;;;34.63;27.25
12221;BME280;6173;42.024;23.096;2022-08-02T12:19:06;96379.50;;;36.14;25.43
12221;BME280;6173;42.024;23.096;2022-08-02T12:21:48;96367.09;;;36.80;24.18
12221;BME280;6173;42.024;23.096;2022-08-02T12:24:31;96360.09;;;37.60;23.24
12221;BME280;6173;42.024;23.096;2022-08-02T12:26:59;96362.66;;;38.02;22.60
12221;BME280;6173;42.024;23.096;2022-08-02T12:29:31;96359.34;;;39.07;21.95
12221;BME280;6173;42.024;23.096;2022-08-02T12:31:59;96320.50;;;39.63;21.21
12221;BME280;6173;42.024;23.096;2022-08-02T12:34:28;96360.66;;;41.51;20.04
12221;BME280;6173;42.024;23.096;2022-08-02T12:37:00;96362.44;;;41.06;20.00
12221;BME280;6173;42.024;23.096;2022-08-02T12:39:35;96361.91;;;40.65;20.05
12221;BME280;6173;42.024;23.096;2022-08-02T12:42:03;96359.88;;;42.22;19.09
12221;BME280;6173;42.024;23.096;2022-08-02T12:44:32;96360.94;;;42.64;18.98
12221;BME280;6173;42.024;23.096;2022-08-02T12:47:00;96366.97;;;42.84;18.54
12221;BME280;6173;42.024;23.096;2022-08-02T12:49:27;96356.59;;;43.02;18.17
12221;BME280;6173;42.024;23.096;2022-08-02T12:51:54;96368.50;;;43.77;17.57
12221;BME280;6173;42.024;23.096;2022-08-02T12:54:23;96337.72;;;43.36;17.65
12221;BME280;6173;42.024;23.096;2022-08-02T12:56:50;96357.50;;;43.38;17.81
12221;BME280;6173;42.024;23.096;2022-08-02T12:59:37;96287.13;;;43.09;17.48
12221;BME280;6173;42.024;23.096;2022-08-02T13:02:05;96334.09;;;43.58;17.30
12221;BME280;6173;42.024;23.096;2022-08-02T13:04:33;96357.69;;;43.57;17.34
12221;BME280;6173;42.024;23.096;2022-08-02T13:06:59;96332.50;;;43.74;17.03
12221;BME280;6173;42.024;23.096;2022-08-02T13:09:26;96336.78;;;43.11;17.59
12221;BME280;6173;42.024;23.096;2022-08-02T13:11:53;96304.25;;;41.45;18.48